createdAt,value
2018-06-15T00:02:11.697Z,17.60
2018-06-15T00:04:39.971Z,17.60
2018-06-15T00:07:08.277Z,17.60
2018-06-15T00:09:36.765Z,17.50
2018-06-15T00:12:05.226Z,17.50
2018-06-15T00:14:33.469Z,17.50
2018-06-15T00:17:01.778Z,17.50
2018-06-15T00:19:30.058Z,17.50
2018-06-15T00:21:58.282Z,17.50
2018-06-15T00:24:27.069Z,17.40
2018-06-15T00:26:55.406Z,17.40
2018-06-15T00:29:23.647Z,17.40
2018-06-15T00:31:51.861Z,17.40
2018-06-15T00:34:20.114Z,17.50
2018-06-15T00:36:48.423Z,17.50
2018-06-15T00:39:16.640Z,17.40
2018-06-15T00:41:45.505Z,17.40
2018-06-15T00:44:13.717Z,17.40
2018-06-15T00:46:42.317Z,17.30
2018-06-15T00:49:10.661Z,17.40
2018-06-15T00:51:38.932Z,17.40
2018-06-15T00:54:07.442Z,17.30
2018-06-15T00:56:45.656Z,17.20
2018-06-15T00:59:14.021Z,17.20
2018-06-15T01:01:42.278Z,17.20
2018-06-15T01:04:10.516Z,17.20
2018-06-15T01:06:38.725Z,17.20
2018-06-15T01:09:07.820Z,17.20
2018-06-15T01:11:36.441Z,17.20
2018-06-15T01:14:04.787Z,17.10
2018-06-15T01:16:32.994Z,17.10
2018-06-15T01:19:01.600Z,17.10
2018-06-15T01:21:29.977Z,17.10
2018-06-15T01:23:58.322Z,17.10
2018-06-15T01:26:26.585Z,17.10
2018-06-15T01:28:55.396Z,17.00
2018-06-15T01:31:23.770Z,17.00
2018-06-15T01:33:51.971Z,17.00
2018-06-15T01:36:20.192Z,16.90
2018-06-15T01:38:48.413Z,16.90
2018-06-15T01:41:16.620Z,16.90
2018-06-15T01:43:45.186Z,16.90
2018-06-15T01:46:13.441Z,16.90
2018-06-15T01:48:41.654Z,16.80
2018-06-15T01:51:09.879Z,16.80
2018-06-15T01:53:38.088Z,16.80
2018-06-15T01:56:06.390Z,16.80
2018-06-15T01:58:34.649Z,16.80
2018-06-15T02:01:02.934Z,16.80
2018-06-15T02:03:31.165Z,16.80
2018-06-15T02:05:59.797Z,16.80
2018-06-15T02:08:28.037Z,16.80
2018-06-15T02:10:56.285Z,16.80
2018-06-15T02:13:24.503Z,16.80
2018-06-15T02:15:52.762Z,16.80
2018-06-15T02:18:21.029Z,16.80
2018-06-15T02:20:49.345Z,16.80
2018-06-15T02:23:17.561Z,16.80
2018-06-15T02:25:45.757Z,16.80
2018-06-15T02:28:14.007Z,16.80
2018-06-15T02:30:42.298Z,16.80
2018-06-15T02:33:10.574Z,16.80
2018-06-15T02:35:38.935Z,16.80
2018-06-15T02:38:07.146Z,16.80
2018-06-15T02:40:35.352Z,16.80
2018-06-15T02:43:03.754Z,16.80
2018-06-15T02:45:32.026Z,16.80
2018-06-15T02:48:00.171Z,16.90
2018-06-15T02:50:28.430Z,16.80
2018-06-15T02:52:56.657Z,16.80
2018-06-15T02:55:24.903Z,16.80
2018-06-15T02:57:53.222Z,16.80
2018-06-15T03:00:21.502Z,16.80
2018-06-15T03:02:49.819Z,16.80
2018-06-15T03:05:18.153Z,16.80
2018-06-15T03:07:46.434Z,16.80
2018-06-15T03:10:14.633Z,16.80
2018-06-15T03:12:42.885Z,16.80
2018-06-15T03:15:11.085Z,16.80
2018-06-15T03:17:39.300Z,16.90
2018-06-15T03:20:07.535Z,16.90
2018-06-15T03:22:35.770Z,16.80
2018-06-15T03:25:04.081Z,16.80
2018-06-15T03:27:32.688Z,16.80
2018-06-15T03:30:00.899Z,16.80
2018-06-15T03:32:29.209Z,16.80
2018-06-15T03:34:57.502Z,16.80
2018-06-15T03:37:25.702Z,16.80
2018-06-15T03:39:53.914Z,16.80
2018-06-15T03:42:22.191Z,16.90
2018-06-15T03:44:50.445Z,16.90
2018-06-15T03:47:18.741Z,16.80
2018-06-15T03:49:47.024Z,16.80
2018-06-15T03:52:15.265Z,16.80
2018-06-15T03:54:43.533Z,16.80
2018-06-15T03:57:11.805Z,16.80
2018-06-15T03:59:39.998Z,16.90
2018-06-15T04:02:08.223Z,16.80
2018-06-15T04:04:36.871Z,16.80
2018-06-15T04:07:05.111Z,16.80
2018-06-15T04:09:33.486Z,16.80
2018-06-15T04:12:02.159Z,16.80
2018-06-15T04:14:30.348Z,16.80
2018-06-15T04:16:58.621Z,16.90
2018-06-15T04:19:26.842Z,16.90
2018-06-15T04:21:55.040Z,17.00
2018-06-15T04:24:23.285Z,17.00
2018-06-15T04:26:51.493Z,16.90
2018-06-15T04:29:19.749Z,16.90
2018-06-15T04:31:47.934Z,16.90
2018-06-15T04:34:16.446Z,16.90
2018-06-15T04:36:44.702Z,16.90
2018-06-15T04:39:13.031Z,16.90
2018-06-15T04:41:41.249Z,16.90
2018-06-15T04:44:09.569Z,16.90
2018-06-15T04:46:37.845Z,17.00
2018-06-15T04:49:06.101Z,17.00
2018-06-15T04:51:34.341Z,17.10
2018-06-15T04:54:02.557Z,17.10
2018-06-15T04:56:31.231Z,17.20
2018-06-15T04:58:59.479Z,17.20
2018-06-15T05:01:27.741Z,17.20
2018-06-15T05:03:56.010Z,17.20
2018-06-15T05:06:24.271Z,17.20
2018-06-15T05:08:52.480Z,17.30
2018-06-15T05:11:20.750Z,17.30
2018-06-15T05:13:48.972Z,17.30
2018-06-15T05:16:17.206Z,17.30
2018-06-15T05:18:45.437Z,17.30
2018-06-15T05:21:13.677Z,17.30
2018-06-15T05:23:41.885Z,17.40
2018-06-15T05:26:10.130Z,17.50
2018-06-15T05:28:38.396Z,17.50
2018-06-15T05:31:06.595Z,17.60
2018-06-15T05:33:34.850Z,17.60
2018-06-15T05:36:03.071Z,17.60
2018-06-15T05:38:31.335Z,17.70
2018-06-15T05:40:59.939Z,17.80
2018-06-15T05:43:28.215Z,17.90
2018-06-15T05:45:56.446Z,17.90
2018-06-15T05:48:24.673Z,18.00
2018-06-15T05:50:52.908Z,18.10
2018-06-15T05:53:21.142Z,18.10
2018-06-15T05:55:49.699Z,18.10
2018-06-15T05:58:18.045Z,18.20
2018-06-15T06:00:46.318Z,18.40
2018-06-15T06:03:19.271Z,18.50
2018-06-15T06:05:48.012Z,18.60
2018-06-15T06:08:18.174Z,18.70
2018-06-15T06:10:46.890Z,18.70
2018-06-15T06:13:15.118Z,18.70
2018-06-15T06:15:43.565Z,18.80
2018-06-15T06:18:12.321Z,18.90
2018-06-15T06:20:40.521Z,19.00
2018-06-15T06:23:08.802Z,18.90
2018-06-15T06:25:37.033Z,18.80
2018-06-15T06:28:05.330Z,18.80
2018-06-15T06:30:33.577Z,18.90
2018-06-15T06:33:01.826Z,19.00
2018-06-15T06:35:30.134Z,19.20
2018-06-15T06:37:58.431Z,19.20
2018-06-15T06:40:26.684Z,19.40
2018-06-15T06:42:54.902Z,19.30
2018-06-15T06:45:23.182Z,19.20
2018-06-15T06:47:51.433Z,19.10
2018-06-15T06:50:19.776Z,19.30
2018-06-15T06:52:48.005Z,19.30
2018-06-15T06:55:16.297Z,19.40
2018-06-15T06:57:44.561Z,19.40
2018-06-15T07:00:13.042Z,19.50
2018-06-15T07:02:41.321Z,19.70
2018-06-15T07:05:09.632Z,19.80
2018-06-15T07:07:37.897Z,19.80
2018-06-15T07:10:06.129Z,19.90
2018-06-15T07:12:34.370Z,20.00
2018-06-15T07:15:02.623Z,20.00
2018-06-15T07:17:30.872Z,19.90
2018-06-15T07:19:59.092Z,19.90
2018-06-15T07:22:27.385Z,19.80
2018-06-15T07:24:55.608Z,19.80
2018-06-15T07:27:23.885Z,19.80
2018-06-15T07:29:52.192Z,19.90
2018-06-15T07:32:20.421Z,19.90
2018-06-15T07:34:48.638Z,19.90
2018-06-15T07:37:16.887Z,19.90
2018-06-15T07:39:45.182Z,19.90
2018-06-15T07:42:13.397Z,19.90
2018-06-15T07:44:41.691Z,20.30
2018-06-15T07:47:10.123Z,20.80
2018-06-15T07:49:38.365Z,21.30
2018-06-15T07:52:06.594Z,21.70
2018-06-15T07:54:34.839Z,21.80
2018-06-15T07:57:03.115Z,22.30
2018-06-15T08:41:28.620Z,23.60
2018-06-15T08:43:56.850Z,23.90
2018-06-15T08:46:25.068Z,23.90
2018-06-15T08:48:53.355Z,23.90
2018-06-15T08:51:21.646Z,23.90
2018-06-15T08:53:49.870Z,24.10
2018-06-15T08:56:18.151Z,24.20
2018-06-15T08:58:46.369Z,24.40
2018-06-15T09:01:14.589Z,24.80
2018-06-15T09:03:42.852Z,24.80
2018-06-15T09:06:11.057Z,24.90
2018-06-15T09:08:39.281Z,25.00
2018-06-15T09:11:07.497Z,24.50
2018-06-15T09:13:35.940Z,24.10
2018-06-15T09:16:04.289Z,23.90
2018-06-15T09:18:32.638Z,23.90
2018-06-15T09:21:00.917Z,23.80
2018-06-15T09:23:29.150Z,23.80
2018-06-15T09:25:57.382Z,24.20
2018-06-15T09:28:25.611Z,24.20
2018-06-15T09:30:54.147Z,23.70
2018-06-15T09:33:22.385Z,23.90
2018-06-15T09:35:51.138Z,24.20
2018-06-15T09:40:47.354Z,24.70
2018-06-15T09:43:15.669Z,24.80
2018-06-15T09:45:44.305Z,25.00
2018-06-15T09:48:12.584Z,25.30
2018-06-15T09:50:40.844Z,25.70
2018-06-15T09:53:09.065Z,25.70
2018-06-15T09:55:37.337Z,25.70
2018-06-15T09:58:05.699Z,24.80
2018-06-15T10:00:39.362Z,24.80
2018-06-15T10:05:35.734Z,23.90
2018-06-15T10:08:03.959Z,23.90
2018-06-15T10:10:32.175Z,23.60
2018-06-15T10:13:00.503Z,23.70
2018-06-15T10:15:28.802Z,23.90
2018-06-15T10:17:57.124Z,24.30
2018-06-15T10:20:25.425Z,24.40
2018-06-15T10:22:53.704Z,24.30
2018-06-15T10:25:22.050Z,24.40
2018-06-15T10:27:50.270Z,24.60
2018-06-15T10:30:18.807Z,24.70
2018-06-15T10:32:47.042Z,25.10
2018-06-15T10:35:15.383Z,25.40
2018-06-15T10:37:43.675Z,25.50
2018-06-15T10:40:11.873Z,25.30
2018-06-15T10:42:40.145Z,24.80
2018-06-15T10:45:08.457Z,24.80
2018-06-15T10:47:36.691Z,24.30
2018-06-15T10:50:04.921Z,24.00
2018-06-15T10:55:01.210Z,23.80
2018-06-15T10:57:29.477Z,23.70
2018-06-15T10:59:57.784Z,23.50
2018-06-15T11:02:26.132Z,23.40
2018-06-15T11:04:54.300Z,23.40
2018-06-15T11:07:22.515Z,23.50
2018-06-15T11:09:50.718Z,23.50
2018-06-15T11:14:46.901Z,24.20
2018-06-15T11:17:15.170Z,24.60
2018-06-15T11:19:43.505Z,25.00
2018-06-15T11:22:12.079Z,25.00
2018-06-15T11:24:40.413Z,24.90
2018-06-15T11:27:08.593Z,24.80
2018-06-15T11:29:37.117Z,24.60
2018-06-15T11:32:05.366Z,24.50
2018-06-15T11:34:33.590Z,24.20
2018-06-15T11:37:01.854Z,24.10
2018-06-15T11:39:30.129Z,24.10
2018-06-15T11:41:58.437Z,23.90
2018-06-15T11:44:26.781Z,24.00
2018-06-15T11:49:23.286Z,24.20
2018-06-15T11:51:51.526Z,24.20
2018-06-15T11:54:19.730Z,24.60
2018-06-15T11:56:47.956Z,24.90
2018-06-15T12:01:44.217Z,25.00
2018-06-15T12:04:12.529Z,25.00
2018-06-15T12:06:40.737Z,25.10
2018-06-15T12:09:09.817Z,25.30
2018-06-15T12:11:38.018Z,25.50
2018-06-15T12:14:06.435Z,25.30
2018-06-15T12:16:34.665Z,25.30
2018-06-15T12:19:02.866Z,25.00
2018-06-15T12:21:31.169Z,24.70
2018-06-15T12:23:59.558Z,24.60
2018-06-15T12:26:27.902Z,24.60
2018-06-15T12:28:56.161Z,24.70
2018-06-15T12:31:24.409Z,25.00
2018-06-15T12:36:25.148Z,25.80
2018-06-15T12:38:53.371Z,25.70
2018-06-15T12:41:21.592Z,25.60
2018-06-15T12:43:49.865Z,25.60
2018-06-15T12:46:18.165Z,25.80
2018-06-15T12:48:46.394Z,25.80
2018-06-15T12:51:14.778Z,26.00
2018-06-15T12:53:43.014Z,26.10
2018-06-15T12:56:11.219Z,26.00
2018-06-15T12:58:39.483Z,26.00
2018-06-15T13:01:07.830Z,26.10
2018-06-15T13:03:36.049Z,26.00
2018-06-15T13:06:04.508Z,26.00
2018-06-15T13:08:32.750Z,26.30
2018-06-15T13:11:00.958Z,26.00
2018-06-15T13:13:29.350Z,26.10
2018-06-15T13:15:57.632Z,26.10
2018-06-15T13:18:25.930Z,26.40
2018-06-15T13:20:54.190Z,26.40
2018-06-15T13:23:22.462Z,26.30
2018-06-15T13:25:50.725Z,26.30
2018-06-15T13:28:18.938Z,26.40
2018-06-15T13:30:47.130Z,26.70
2018-06-15T13:33:15.333Z,26.80
2018-06-15T13:35:43.709Z,27.10
2018-06-15T13:38:12.042Z,27.00
2018-06-15T13:40:40.293Z,27.00
2018-06-15T13:43:08.578Z,26.80
2018-06-15T13:45:36.841Z,26.80
2018-06-15T13:48:05.169Z,26.70
2018-06-15T13:50:33.366Z,26.90
2018-06-15T13:53:01.577Z,27.00
2018-06-15T13:55:29.827Z,27.00
2018-06-15T13:57:58.052Z,27.00
2018-06-15T14:00:26.411Z,25.40
2018-06-15T14:02:54.603Z,26.90
2018-06-15T14:05:22.809Z,26.80
2018-06-15T14:07:51.035Z,26.80
2018-06-15T14:10:19.263Z,26.60
2018-06-15T14:12:47.557Z,26.10
2018-06-15T14:15:15.833Z,25.70
2018-06-15T14:17:44.036Z,25.40
2018-06-15T14:20:12.312Z,25.30
2018-06-15T14:22:40.566Z,25.10
2018-06-15T14:25:08.892Z,24.80
2018-06-15T14:27:37.113Z,24.80
2018-06-15T14:30:05.639Z,24.70
2018-06-15T14:32:33.873Z,24.50
2018-06-15T14:35:02.103Z,24.50
2018-06-15T14:37:30.355Z,24.50
2018-06-15T14:39:58.697Z,24.50
2018-06-15T14:42:27.003Z,24.30
2018-06-15T14:44:55.270Z,24.20
2018-06-15T14:47:23.516Z,24.10
2018-06-15T14:49:51.809Z,24.10
2018-06-15T14:52:20.039Z,24.00
2018-06-15T14:54:48.246Z,23.90
2018-06-15T14:57:16.523Z,23.80
2018-06-15T14:59:44.755Z,23.80
2018-06-15T15:02:13.017Z,23.80
2018-06-15T15:04:41.379Z,23.80
2018-06-15T15:07:09.829Z,23.90
2018-06-15T15:09:38.114Z,23.90
2018-06-15T15:12:06.499Z,23.90
2018-06-15T15:14:34.924Z,23.90
2018-06-15T15:17:03.137Z,24.00
2018-06-15T15:19:31.381Z,24.00
2018-06-15T15:21:59.786Z,24.00
2018-06-15T15:24:28.046Z,24.00
2018-06-15T15:26:56.268Z,24.00
2018-06-15T15:31:52.589Z,24.00
2018-06-15T15:34:20.929Z,24.00
2018-06-15T15:36:49.140Z,24.00
2018-06-15T15:39:17.373Z,24.00
2018-06-15T15:41:45.667Z,24.10
2018-06-15T15:44:13.957Z,24.10
2018-06-15T15:46:42.213Z,24.00
2018-06-15T15:51:38.548Z,24.00
2018-06-15T15:54:06.787Z,24.00
2018-06-15T15:56:34.997Z,24.20
2018-06-15T15:59:03.297Z,24.20
2018-06-15T16:01:31.536Z,24.20
2018-06-15T16:03:59.837Z,24.10
2018-06-15T16:06:28.071Z,23.90
2018-06-15T16:08:56.336Z,23.90
2018-06-15T16:11:25.261Z,24.00
2018-06-15T16:13:53.490Z,24.00
2018-06-15T16:16:21.718Z,24.20
2018-06-15T16:18:49.950Z,24.20
2018-06-15T16:21:18.243Z,24.20
2018-06-15T16:23:46.509Z,24.20
2018-06-15T16:26:14.729Z,24.20
2018-06-15T16:28:43.058Z,24.10
2018-06-15T16:31:11.337Z,24.00
2018-06-15T16:33:39.581Z,24.00
2018-06-15T16:36:07.829Z,24.00
2018-06-15T16:38:36.042Z,23.90
2018-06-15T16:41:04.258Z,23.90
2018-06-15T16:43:32.515Z,23.80
2018-06-15T16:46:00.718Z,23.80
2018-06-15T16:48:28.961Z,23.60
2018-06-15T16:50:57.180Z,23.60
2018-06-15T16:53:25.414Z,23.60
2018-06-15T16:55:54.018Z,23.50
2018-06-15T16:58:22.305Z,23.30
2018-06-15T17:00:50.557Z,23.40
2018-06-15T17:03:19.065Z,23.40
2018-06-15T17:05:47.373Z,23.40
2018-06-15T17:08:15.586Z,23.30
2018-06-15T17:10:44.134Z,23.30
2018-06-15T17:13:12.362Z,23.30
2018-06-15T17:15:40.584Z,23.30
2018-06-15T17:18:09.100Z,23.30
2018-06-15T17:20:37.374Z,23.20
2018-06-15T17:23:05.690Z,23.20
2018-06-15T17:25:34.265Z,23.10
2018-06-15T17:28:02.476Z,23.00
2018-06-15T17:30:30.770Z,23.00
2018-06-15T17:32:59.070Z,22.80
2018-06-15T17:35:27.361Z,22.70
2018-06-15T17:37:55.577Z,22.80
2018-06-15T17:40:23.821Z,22.60
2018-06-15T17:42:52.163Z,22.50
2018-06-15T17:45:20.373Z,22.50
2018-06-15T17:47:48.780Z,22.50
2018-06-15T17:50:17.009Z,22.40
2018-06-15T17:52:45.218Z,22.30
2018-06-15T17:55:13.547Z,22.20
2018-06-15T17:57:41.861Z,22.10
2018-06-15T18:00:10.094Z,22.00
2018-06-15T18:02:38.417Z,22.00
2018-06-15T18:05:06.893Z,21.80
2018-06-15T18:07:35.209Z,21.70
2018-06-15T18:10:03.509Z,21.70
2018-06-15T18:12:31.754Z,21.50
2018-06-15T18:14:59.988Z,21.60
2018-06-15T18:19:56.453Z,21.60
2018-06-15T18:22:24.645Z,21.60
2018-06-15T18:24:52.937Z,21.60
2018-06-15T18:27:21.292Z,21.60
2018-06-15T18:29:49.570Z,21.60
2018-06-15T18:32:18.209Z,21.50
2018-06-15T18:34:46.422Z,21.50
2018-06-15T18:37:14.661Z,21.50
2018-06-15T18:39:43.237Z,21.40
2018-06-15T18:42:11.445Z,21.40
2018-06-15T18:44:39.691Z,21.30
2018-06-15T18:49:35.986Z,21.30
2018-06-15T18:52:04.256Z,21.20
2018-06-15T18:54:32.610Z,21.20
2018-06-15T18:59:28.762Z,21.20
2018-06-15T19:01:57.090Z,21.20
2018-06-15T19:04:25.289Z,21.10
2018-06-15T19:06:53.513Z,21.10
2018-06-15T19:09:21.745Z,21.10
2018-06-15T19:11:50.045Z,21.00
2018-06-15T19:14:18.351Z,20.90
2018-06-15T19:16:47.008Z,21.00
2018-06-15T19:19:15.219Z,20.90
2018-06-15T19:21:43.421Z,20.90
2018-06-15T19:24:11.749Z,20.90
2018-06-15T19:26:40.025Z,20.80
2018-06-15T19:31:36.350Z,20.80
2018-06-15T19:34:04.625Z,20.80
2018-06-15T19:36:32.917Z,20.80
2018-06-15T19:39:01.161Z,20.70
2018-06-15T19:41:29.366Z,20.70
2018-06-15T19:43:57.568Z,20.60
2018-06-15T19:46:25.851Z,20.70
2018-06-15T19:48:54.157Z,20.70
2018-06-15T19:51:22.367Z,20.70
2018-06-15T19:53:50.657Z,20.70
2018-06-15T19:56:18.873Z,20.60
2018-06-15T19:58:47.165Z,20.60
2018-06-15T20:01:15.376Z,20.60
2018-06-15T20:03:43.593Z,20.60
2018-06-15T20:06:12.177Z,20.50
2018-06-15T20:08:40.397Z,20.50
2018-06-15T20:11:08.674Z,20.40
2018-06-15T20:13:37.410Z,20.40
2018-06-15T20:16:05.705Z,20.40
2018-06-15T20:18:33.901Z,20.40
2018-06-15T20:21:02.441Z,20.40
2018-06-15T20:23:30.658Z,20.40
2018-06-15T20:25:58.993Z,20.40
2018-06-15T20:28:27.898Z,20.40
2018-06-15T20:30:56.175Z,20.40
2018-06-15T20:33:24.383Z,20.30
2018-06-15T20:35:52.605Z,20.20
2018-06-15T20:40:48.909Z,20.30
2018-06-15T20:43:17.187Z,20.30
2018-06-15T20:45:45.452Z,20.20
2018-06-15T20:48:13.703Z,20.20
2018-06-15T20:50:41.978Z,20.20
2018-06-15T20:53:10.332Z,20.10
2018-06-15T20:55:38.561Z,20.20
2018-06-15T20:58:06.826Z,20.10
2018-06-15T21:00:35.056Z,20.20
2018-06-15T21:05:31.278Z,20.10
2018-06-15T21:07:59.498Z,20.10
2018-06-15T21:10:27.850Z,20.10
2018-06-15T21:12:56.081Z,20.10
2018-06-15T21:15:24.402Z,20.00
2018-06-15T21:17:52.645Z,20.00
2018-06-15T21:20:20.894Z,20.10
2018-06-15T21:22:49.129Z,20.30
2018-06-15T21:25:17.349Z,20.30
2018-06-15T21:27:45.605Z,20.10
2018-06-15T21:32:41.876Z,20.00
2018-06-15T21:35:10.153Z,20.00
2018-06-15T21:37:38.419Z,20.00
2018-06-15T21:40:06.708Z,20.00
2018-06-15T21:42:35.101Z,19.90
2018-06-15T21:45:03.322Z,19.80
2018-06-15T21:47:31.909Z,19.80
2018-06-15T21:50:00.114Z,19.80
2018-06-15T21:52:28.369Z,19.70
2018-06-15T21:57:24.693Z,19.50
2018-06-15T21:59:52.969Z,19.50
2018-06-15T22:02:21.252Z,19.50
2018-06-15T22:04:49.474Z,19.40
2018-06-15T22:07:17.697Z,19.40
2018-06-15T22:09:45.932Z,19.40
2018-06-15T22:12:14.243Z,19.40
2018-06-15T22:17:11.405Z,19.20
2018-06-15T22:19:39.826Z,19.20
2018-06-15T22:22:08.208Z,19.20
2018-06-15T22:24:36.558Z,19.10
2018-06-15T22:27:04.765Z,19.10
2018-06-15T22:29:33.121Z,19.10
2018-06-15T22:32:01.381Z,19.10
2018-06-15T22:34:29.673Z,19.10
2018-06-15T22:36:57.933Z,19.10
2018-06-15T22:39:26.193Z,19.00
2018-06-15T22:44:22.730Z,19.00
2018-06-15T22:46:50.937Z,19.00
2018-06-15T22:49:19.605Z,19.10
2018-06-15T22:51:47.885Z,19.10
2018-06-15T22:54:16.113Z,19.00
2018-06-15T22:56:44.740Z,19.00
2018-06-15T22:59:12.937Z,19.10
2018-06-15T23:01:41.193Z,19.10
2018-06-15T23:04:09.485Z,19.10
2018-06-15T23:06:37.715Z,19.10
2018-06-15T23:11:34.953Z,18.90
2018-06-15T23:14:03.205Z,18.90
2018-06-15T23:16:31.811Z,18.90
2018-06-15T23:19:00.007Z,18.90
2018-06-15T23:21:28.318Z,18.90
2018-06-15T23:23:56.593Z,18.90
2018-06-15T23:26:24.889Z,18.90
2018-06-15T23:28:53.093Z,18.90
2018-06-15T23:31:21.323Z,18.90
2018-06-15T23:33:49.537Z,18.90
2018-06-15T23:36:18.170Z,18.90
2018-06-15T23:38:46.521Z,19.00
2018-06-15T23:41:14.863Z,19.00
2018-06-15T23:43:43.150Z,19.00
2018-06-15T23:46:11.617Z,18.90
2018-06-15T23:48:39.876Z,18.90
2018-06-15T23:51:08.180Z,18.90
2018-06-15T23:53:36.439Z,18.90
2018-06-15T23:56:04.767Z,19.00
2018-06-15T23:58:32.996Z,18.90
